createdAt,value
2019-03-29T00:01:28.618Z,19.40
2019-03-29T00:04:08.942Z,17.00
2019-03-29T00:06:49.737Z,18.80
2019-03-29T00:12:13.310Z,15.97
2019-03-29T00:14:53.953Z,18.37
2019-03-29T00:17:34.603Z,16.67
2019-03-29T00:20:15.149Z,17.20
2019-03-29T00:22:56.328Z,18.70
2019-03-29T00:25:38.056Z,21.57
2019-03-29T00:28:18.611Z,21.57
2019-03-29T00:30:59.495Z,17.60
2019-03-29T00:33:40.015Z,20.33
2019-03-29T00:36:20.977Z,18.20
2019-03-29T00:39:01.385Z,16.20
2019-03-29T00:41:41.856Z,19.80
2019-03-29T00:44:22.642Z,15.27
2019-03-29T00:47:03.361Z,14.23
2019-03-29T00:49:45.070Z,15.47
2019-03-29T00:52:26.136Z,16.40
2019-03-29T00:55:06.876Z,20.17
2019-03-29T01:00:43.809Z,18.67
2019-03-29T01:03:24.370Z,22.23
2019-03-29T01:06:04.862Z,24.03
2019-03-29T01:08:45.808Z,20.33
2019-03-29T01:11:27.113Z,27.40
2019-03-29T01:14:08.388Z,22.00
2019-03-29T01:16:48.964Z,21.90
2019-03-29T01:19:30.104Z,24.90
2019-03-29T01:22:10.696Z,22.43
2019-03-29T01:24:51.327Z,22.13
2019-03-29T01:27:32.202Z,22.90
2019-03-29T01:30:12.957Z,20.13
2019-03-29T01:32:53.572Z,22.80
2019-03-29T01:35:35.385Z,21.07
2019-03-29T01:38:22.281Z,26.40
2019-03-29T01:40:59.214Z,22.90
2019-03-29T01:43:40.325Z,22.30
2019-03-29T01:46:20.948Z,22.20
2019-03-29T01:49:01.791Z,20.20
2019-03-29T01:51:42.231Z,20.90
2019-03-29T01:54:23.087Z,23.17
2019-03-29T01:57:03.515Z,24.80
2019-03-29T01:59:44.535Z,22.93
2019-03-29T02:02:25.123Z,24.20
2019-03-29T02:05:06.300Z,25.80
2019-03-29T02:07:47.260Z,26.47
2019-03-29T02:10:28.484Z,25.50
2019-03-29T02:13:09.284Z,23.50
2019-03-29T02:15:49.841Z,24.40
2019-03-29T02:18:30.548Z,23.33
2019-03-29T02:21:11.398Z,24.17
2019-03-29T02:23:52.233Z,21.90
2019-03-29T02:26:33.091Z,24.97
2019-03-29T02:29:13.522Z,23.87
2019-03-29T02:31:56.463Z,23.93
2019-03-29T02:34:36.700Z,26.73
2019-03-29T02:37:17.486Z,25.33
2019-03-29T02:39:58.306Z,22.07
2019-03-29T02:42:38.920Z,24.87
2019-03-29T02:45:20.120Z,29.20
2019-03-29T02:48:00.555Z,27.53
2019-03-29T02:50:41.443Z,27.93
2019-03-29T02:53:22.273Z,29.80
2019-03-29T02:58:48.162Z,26.03
2019-03-29T03:01:29.396Z,27.97
2019-03-29T03:04:10.256Z,29.87
2019-03-29T03:06:51.058Z,26.40
2019-03-29T03:09:31.453Z,29.13
2019-03-29T03:12:12.070Z,25.50
2019-03-29T03:14:52.717Z,25.80
2019-03-29T03:17:33.917Z,27.83
2019-03-29T03:20:15.703Z,28.70
2019-03-29T03:22:56.372Z,26.37
2019-03-29T03:25:37.259Z,24.50
2019-03-29T03:28:18.562Z,23.87
2019-03-29T03:30:59.398Z,29.17
2019-03-29T03:33:40.228Z,27.93
2019-03-29T03:36:20.880Z,27.53
2019-03-29T03:39:01.626Z,28.60
2019-03-29T03:41:42.260Z,26.17
2019-03-29T03:44:23.184Z,28.10
2019-03-29T03:47:03.798Z,28.60
2019-03-29T03:49:44.880Z,27.03
2019-03-29T03:52:25.804Z,29.87
2019-03-29T03:55:07.151Z,29.80
2019-03-29T03:57:47.915Z,28.93
2019-03-29T04:00:28.685Z,29.83
2019-03-29T04:03:09.185Z,29.07
2019-03-29T04:05:49.917Z,27.93
2019-03-29T04:08:30.439Z,30.00
2019-03-29T04:11:11.155Z,30.80
2019-03-29T04:13:52.204Z,30.97
2019-03-29T04:16:32.749Z,31.03
2019-03-29T04:19:13.682Z,28.67
2019-03-29T04:21:54.701Z,32.10
2019-03-29T04:24:35.198Z,30.20
2019-03-29T04:27:16.012Z,31.13
2019-03-29T04:29:56.635Z,28.27
2019-03-29T04:32:37.282Z,29.13
2019-03-29T04:35:18.253Z,27.77
2019-03-29T04:37:59.081Z,33.40
2019-03-29T04:40:40.040Z,28.10
2019-03-29T04:43:20.977Z,41.63
2019-03-29T04:46:01.636Z,30.57
2019-03-29T04:51:26.644Z,32.77
2019-03-29T04:54:07.505Z,39.77
2019-03-29T04:56:48.325Z,40.50
2019-03-29T04:59:29.188Z,35.03
2019-03-29T05:02:10.117Z,36.10
2019-03-29T05:04:50.787Z,30.17
2019-03-29T05:07:31.253Z,39.93
2019-03-29T05:10:21.087Z,32.60
2019-03-29T05:12:54.259Z,34.27
2019-03-29T05:15:35.198Z,38.10
2019-03-29T05:18:15.861Z,37.57
2019-03-29T05:20:56.553Z,35.40
2019-03-29T05:23:37.365Z,31.07
2019-03-29T05:26:18.082Z,35.53
2019-03-29T05:28:59.048Z,31.07
2019-03-29T05:31:39.588Z,33.53
2019-03-29T05:34:20.386Z,30.50
2019-03-29T05:37:01.364Z,30.23
2019-03-29T05:39:42.142Z,29.67
2019-03-29T05:42:22.685Z,28.33
2019-03-29T05:45:03.267Z,32.37
2019-03-29T05:50:25.417Z,28.67
2019-03-29T05:53:06.041Z,28.70
2019-03-29T05:55:48.423Z,28.17
2019-03-29T05:58:30.081Z,27.80
2019-03-29T06:01:11.426Z,27.13
2019-03-29T06:03:52.538Z,25.27
2019-03-29T06:06:33.078Z,26.20
2019-03-29T06:09:13.552Z,24.17
2019-03-29T06:11:54.720Z,28.67
2019-03-29T06:14:36.131Z,23.17
2019-03-29T06:17:17.173Z,24.43
2019-03-29T06:19:57.814Z,22.73
2019-03-29T06:22:38.434Z,21.93
2019-03-29T06:25:19.221Z,23.77
2019-03-29T06:27:59.897Z,25.20
2019-03-29T06:30:40.864Z,25.23
2019-03-29T06:36:04.267Z,25.90
2019-03-29T06:38:44.716Z,22.83
2019-03-29T06:41:25.229Z,25.77
2019-03-29T06:44:05.616Z,27.07
2019-03-29T06:46:46.340Z,29.17
2019-03-29T06:49:26.897Z,27.93
2019-03-29T06:52:07.615Z,27.93
2019-03-29T06:54:48.240Z,25.30
2019-03-29T06:57:28.722Z,28.03
2019-03-29T07:00:09.517Z,25.10
2019-03-29T07:02:50.521Z,24.90
2019-03-29T07:05:30.990Z,28.87
2019-03-29T07:08:12.028Z,26.80
2019-03-29T07:10:53.238Z,29.17
2019-03-29T07:13:34.013Z,28.00
2019-03-29T07:16:14.652Z,31.97
2019-03-29T07:18:55.329Z,26.90
2019-03-29T07:21:36.454Z,32.50
2019-03-29T07:24:17.007Z,29.57
2019-03-29T07:26:57.917Z,28.47
2019-03-29T07:29:39.041Z,31.33
2019-03-29T07:32:20.039Z,27.50
2019-03-29T07:35:01.065Z,25.90
2019-03-29T07:37:41.892Z,28.70
2019-03-29T07:40:22.963Z,24.83
2019-03-29T07:43:03.431Z,22.00
2019-03-29T07:45:44.438Z,20.10
2019-03-29T07:48:27.411Z,20.73
2019-03-29T07:51:08.672Z,20.57
2019-03-29T07:53:49.058Z,22.17
2019-03-29T07:56:30.220Z,20.80
2019-03-29T07:59:10.936Z,21.70
2019-03-29T08:01:52.079Z,24.57
2019-03-29T08:04:33.388Z,22.07
2019-03-29T08:07:26.621Z,24.63
2019-03-29T08:12:40.717Z,16.33
2019-03-29T08:15:21.819Z,16.87
2019-03-29T08:18:02.826Z,15.77
2019-03-29T08:20:44.665Z,16.30
2019-03-29T08:23:28.598Z,14.17
2019-03-29T08:26:07.717Z,19.93
2019-03-29T08:28:48.364Z,15.93
2019-03-29T08:31:29.101Z,12.20
2019-03-29T08:34:10.002Z,13.40
2019-03-29T08:36:51.002Z,11.90
2019-03-29T08:39:32.269Z,13.53
2019-03-29T08:42:12.889Z,15.20
2019-03-29T08:44:53.505Z,11.73
2019-03-29T08:47:34.192Z,13.90
2019-03-29T08:50:14.911Z,16.47
2019-03-29T08:52:55.868Z,10.83
2019-03-29T08:58:21.292Z,11.50
2019-03-29T09:03:44.985Z,12.10
2019-03-29T09:06:25.966Z,13.80
2019-03-29T09:09:06.794Z,10.70
2019-03-29T09:11:47.485Z,11.00
2019-03-29T09:14:31.278Z,8.40
2019-03-29T09:17:11.093Z,9.67
2019-03-29T09:19:52.032Z,9.03
2019-03-29T09:22:33.153Z,12.23
2019-03-29T09:25:13.841Z,10.20
2019-03-29T09:27:54.941Z,13.20
2019-03-29T09:30:36.005Z,14.03
2019-03-29T09:33:16.652Z,9.27
2019-03-29T09:35:58.390Z,9.47
2019-03-29T09:38:39.240Z,15.13
2019-03-29T09:41:20.582Z,9.23
2019-03-29T09:44:01.002Z,12.73
2019-03-29T09:46:41.810Z,8.40
2019-03-29T09:49:22.742Z,10.90
2019-03-29T09:52:04.075Z,11.37
2019-03-29T09:54:44.776Z,10.87
2019-03-29T09:57:36.720Z,8.70
2019-03-29T10:00:19.131Z,9.50
2019-03-29T10:02:50.707Z,9.50
2019-03-29T10:05:32.069Z,10.27
2019-03-29T10:08:12.560Z,8.20
2019-03-29T10:10:53.176Z,9.43
2019-03-29T10:13:35.019Z,10.63
2019-03-29T10:16:15.569Z,9.37
2019-03-29T10:18:56.556Z,9.63
2019-03-29T10:21:38.021Z,11.57
2019-03-29T10:24:18.532Z,12.13
2019-03-29T10:26:59.084Z,8.97
2019-03-29T10:29:40.424Z,9.93
2019-03-29T10:32:21.314Z,9.00
2019-03-29T10:35:02.157Z,10.43
2019-03-29T10:37:43.832Z,9.63
2019-03-29T10:40:24.814Z,8.60
2019-03-29T10:43:05.228Z,9.77
2019-03-29T10:45:45.932Z,9.10
2019-03-29T10:48:26.780Z,7.50
2019-03-29T10:51:08.438Z,11.20
2019-03-29T10:53:50.229Z,8.20
2019-03-29T10:56:34.424Z,6.83
2019-03-29T10:59:26.682Z,9.07
2019-03-29T11:01:56.356Z,6.93
2019-03-29T11:04:37.112Z,7.60
2019-03-29T11:07:17.701Z,6.17
2019-03-29T11:09:58.622Z,6.60
2019-03-29T11:12:39.045Z,6.80
2019-03-29T11:15:19.809Z,11.33
2019-03-29T11:18:00.846Z,7.00
2019-03-29T11:20:41.539Z,8.10
2019-03-29T11:23:22.444Z,7.90
2019-03-29T11:26:03.365Z,9.13
2019-03-29T11:28:44.440Z,7.67
2019-03-29T11:31:28.092Z,7.57
2019-03-29T11:34:08.969Z,8.40
2019-03-29T11:36:52.462Z,7.60
2019-03-29T11:39:32.276Z,7.97
2019-03-29T11:42:12.964Z,9.00
2019-03-29T11:44:53.557Z,11.60
2019-03-29T11:47:34.424Z,7.80
2019-03-29T11:50:15.360Z,8.10
2019-03-29T11:52:55.808Z,8.83
2019-03-29T11:55:36.932Z,7.80
2019-03-29T11:58:17.448Z,7.43
2019-03-29T12:00:58.104Z,7.73
2019-03-29T12:03:38.685Z,8.43
2019-03-29T12:06:19.889Z,7.60
2019-03-29T12:09:00.716Z,7.30
2019-03-29T12:11:41.437Z,7.60
2019-03-29T12:14:22.553Z,9.40
2019-03-29T12:17:02.919Z,8.13
2019-03-29T12:19:43.547Z,8.17
2019-03-29T12:22:24.116Z,7.10
2019-03-29T12:25:05.153Z,7.97
2019-03-29T12:27:45.515Z,12.80
2019-03-29T12:30:31.860Z,13.70
2019-03-29T12:33:08.795Z,8.63
2019-03-29T12:35:49.330Z,9.87
2019-03-29T12:38:30.349Z,9.50
2019-03-29T12:41:11.098Z,12.77
2019-03-29T12:43:55.939Z,13.30
2019-03-29T12:46:34.858Z,9.43
2019-03-29T12:49:15.583Z,13.77
2019-03-29T12:51:56.417Z,15.20
2019-03-29T12:54:37.426Z,9.40
2019-03-29T12:57:18.257Z,8.17
2019-03-29T12:59:58.707Z,8.77
2019-03-29T13:02:40.049Z,9.33
2019-03-29T13:05:20.802Z,7.10
2019-03-29T13:08:01.405Z,7.63
2019-03-29T13:10:42.671Z,8.90
2019-03-29T13:13:24.142Z,9.37
2019-03-29T13:16:04.893Z,8.90
2019-03-29T13:21:30.443Z,8.53
2019-03-29T13:26:56.449Z,7.63
2019-03-29T13:29:37.122Z,10.47
2019-03-29T13:32:18.273Z,9.10
2019-03-29T13:34:58.977Z,8.60
2019-03-29T13:37:39.879Z,8.03
2019-03-29T13:40:21.353Z,9.10
2019-03-29T13:43:02.386Z,9.70
2019-03-29T13:45:43.177Z,8.77
2019-03-29T13:51:09.089Z,7.97
2019-03-29T13:53:50.033Z,10.37
2019-03-29T13:56:31.019Z,10.73
2019-03-29T13:59:11.986Z,9.80
2019-03-29T14:01:53.094Z,10.17
2019-03-29T14:04:34.344Z,8.57
2019-03-29T14:07:15.591Z,10.57
2019-03-29T14:09:56.435Z,7.73
2019-03-29T14:12:37.153Z,9.93
2019-03-29T14:15:18.122Z,9.30
2019-03-29T14:17:59.007Z,20.67
2019-03-29T14:20:39.496Z,9.03
2019-03-29T14:23:20.059Z,9.33
2019-03-29T14:26:00.673Z,9.40
2019-03-29T14:28:41.198Z,13.83
2019-03-29T14:31:22.028Z,10.17
2019-03-29T14:34:03.072Z,16.83
2019-03-29T14:36:44.048Z,10.13
2019-03-29T14:42:06.400Z,10.47
2019-03-29T14:44:52.876Z,9.90
2019-03-29T14:47:41.231Z,9.67
2019-03-29T14:50:13.302Z,9.60
2019-03-29T14:52:54.201Z,13.40
2019-03-29T14:55:35.280Z,10.90
2019-03-29T14:58:15.686Z,9.00
2019-03-29T15:00:56.545Z,9.33
2019-03-29T15:03:37.353Z,9.37
2019-03-29T15:06:18.009Z,10.03
2019-03-29T15:08:58.722Z,10.33
2019-03-29T15:11:39.938Z,10.73
2019-03-29T15:14:23.068Z,9.67
2019-03-29T15:17:03.014Z,10.30
2019-03-29T15:19:43.476Z,9.13
2019-03-29T15:22:24.637Z,10.03
2019-03-29T15:25:05.799Z,8.17
2019-03-29T15:27:46.306Z,10.50
2019-03-29T15:33:09.944Z,11.33
2019-03-29T15:38:35.545Z,10.60
2019-03-29T15:41:16.893Z,9.33
2019-03-29T15:43:57.586Z,10.60
2019-03-29T15:46:37.909Z,10.37
2019-03-29T15:49:18.561Z,9.77
2019-03-29T15:51:59.359Z,8.43
2019-03-29T15:54:39.945Z,10.77
2019-03-29T15:57:21.147Z,11.30
2019-03-29T16:00:01.909Z,10.53
2019-03-29T16:02:42.323Z,11.27
2019-03-29T16:05:23.302Z,11.10
2019-03-29T16:08:04.411Z,12.73
2019-03-29T16:10:45.140Z,10.10
2019-03-29T16:13:25.814Z,10.30
2019-03-29T16:16:06.778Z,14.27
2019-03-29T16:18:47.715Z,12.63
2019-03-29T16:21:28.474Z,12.20
2019-03-29T16:24:09.361Z,11.63
2019-03-29T16:26:50.526Z,12.10
2019-03-29T16:29:31.326Z,12.73
2019-03-29T16:32:12.493Z,11.70
2019-03-29T16:34:53.093Z,11.43
2019-03-29T16:37:34.342Z,13.00
2019-03-29T16:42:59.124Z,11.47
2019-03-29T16:45:47.644Z,11.07
2019-03-29T16:48:22.561Z,12.37
2019-03-29T16:51:03.627Z,9.47
2019-03-29T16:53:44.107Z,11.80
2019-03-29T16:59:08.161Z,10.20
2019-03-29T17:01:51.270Z,11.33
2019-03-29T17:04:31.507Z,10.87
2019-03-29T17:07:11.949Z,9.90
2019-03-29T17:09:52.722Z,11.27
2019-03-29T17:12:33.703Z,11.37
2019-03-29T17:15:14.384Z,10.70
2019-03-29T17:17:55.201Z,9.10
2019-03-29T17:20:36.229Z,10.90
2019-03-29T17:23:16.862Z,10.97
2019-03-29T17:25:57.652Z,13.07
2019-03-29T17:28:38.378Z,11.63
2019-03-29T17:31:19.458Z,10.77
2019-03-29T17:34:00.028Z,11.53
2019-03-29T17:36:41.077Z,13.70
2019-03-29T17:39:22.300Z,13.50
2019-03-29T17:42:03.552Z,10.90
2019-03-29T17:44:44.220Z,11.53
2019-03-29T17:47:25.691Z,10.03
2019-03-29T17:50:06.538Z,11.50
2019-03-29T17:52:47.015Z,11.43
2019-03-29T17:55:27.748Z,12.80
2019-03-29T17:58:08.634Z,14.13
2019-03-29T18:00:50.151Z,10.27
2019-03-29T18:03:31.545Z,12.90
2019-03-29T18:06:12.001Z,10.50
2019-03-29T18:08:52.879Z,14.37
2019-03-29T18:11:33.741Z,11.20
2019-03-29T18:14:14.465Z,10.40
2019-03-29T18:16:55.156Z,14.03
2019-03-29T18:19:35.925Z,16.00
2019-03-29T18:22:16.607Z,12.90
2019-03-29T18:24:57.521Z,12.53
2019-03-29T18:27:38.496Z,11.40
2019-03-29T18:30:19.312Z,11.07
2019-03-29T18:32:59.977Z,13.17
2019-03-29T18:35:40.842Z,11.53
2019-03-29T18:38:21.673Z,12.80
2019-03-29T18:41:03.044Z,14.53
2019-03-29T18:43:43.741Z,14.43
2019-03-29T18:46:24.361Z,13.27
2019-03-29T18:49:05.388Z,12.13
2019-03-29T18:51:46.152Z,11.90
2019-03-29T18:54:26.618Z,15.87
2019-03-29T18:57:07.450Z,10.13
2019-03-29T18:59:48.450Z,12.97
2019-03-29T19:02:29.100Z,9.70
2019-03-29T19:05:09.875Z,11.00
2019-03-29T19:07:50.302Z,14.57
2019-03-29T19:10:30.827Z,9.57
2019-03-29T19:13:11.190Z,14.60
2019-03-29T19:15:51.962Z,10.17
2019-03-29T19:18:32.515Z,9.73
2019-03-29T19:21:13.333Z,10.83
2019-03-29T19:23:54.345Z,12.37
2019-03-29T19:26:35.372Z,10.70
2019-03-29T19:31:58.737Z,18.90
2019-03-29T19:34:39.533Z,10.53
2019-03-29T19:37:20.778Z,12.17
2019-03-29T19:40:01.894Z,13.67
2019-03-29T19:42:43.035Z,11.00
2019-03-29T19:45:23.843Z,11.00
2019-03-29T19:48:04.564Z,10.50
2019-03-29T19:50:45.703Z,9.87
2019-03-29T19:53:26.168Z,8.63
2019-03-29T19:56:07.130Z,10.97
2019-03-29T19:58:48.155Z,14.77
2019-03-29T20:01:29.005Z,9.87
2019-03-29T20:04:09.866Z,10.53
2019-03-29T20:06:50.713Z,9.03
2019-03-29T20:09:31.397Z,11.77
2019-03-29T20:12:12.297Z,10.10
2019-03-29T20:14:52.849Z,10.90
2019-03-29T20:17:33.493Z,12.10
2019-03-29T20:20:13.948Z,12.00
2019-03-29T20:22:54.682Z,10.50
2019-03-29T20:25:35.418Z,8.97
2019-03-29T20:28:16.008Z,10.13
2019-03-29T20:30:56.556Z,15.00
2019-03-29T20:33:37.419Z,11.30
2019-03-29T20:36:22.629Z,9.53
2019-03-29T20:39:00.709Z,13.60
2019-03-29T20:41:41.635Z,15.60
2019-03-29T20:44:22.480Z,10.17
2019-03-29T20:47:03.458Z,11.97
2019-03-29T20:49:44.213Z,8.63
2019-03-29T20:52:25.241Z,15.67
2019-03-29T20:55:05.648Z,13.57
2019-03-29T20:57:46.518Z,11.70
2019-03-29T21:00:27.908Z,10.77
2019-03-29T21:03:08.843Z,12.93
2019-03-29T21:05:49.573Z,10.10
2019-03-29T21:08:30.443Z,18.60
2019-03-29T21:11:11.319Z,12.63
2019-03-29T21:13:52.201Z,18.00
2019-03-29T21:16:32.764Z,15.53
2019-03-29T21:19:13.710Z,14.60
2019-03-29T21:21:54.225Z,10.60
2019-03-29T21:24:34.937Z,9.90
2019-03-29T21:27:15.615Z,9.60
2019-03-29T21:29:56.251Z,11.50
2019-03-29T21:32:37.503Z,12.30
2019-03-29T21:35:18.282Z,11.27
2019-03-29T21:37:59.345Z,7.83
2019-03-29T21:43:22.978Z,14.33
2019-03-29T21:46:03.784Z,10.63
2019-03-29T21:48:44.706Z,19.03
2019-03-29T21:51:25.706Z,10.27
2019-03-29T21:54:06.824Z,11.00
2019-03-29T21:56:47.393Z,12.40
2019-03-29T21:59:28.225Z,13.63
2019-03-29T22:02:09.015Z,12.93
2019-03-29T22:04:49.688Z,8.53
2019-03-29T22:07:30.660Z,8.83
2019-03-29T22:10:11.473Z,16.20
2019-03-29T22:12:52.537Z,12.73
2019-03-29T22:15:33.114Z,8.40
2019-03-29T22:18:13.917Z,15.53
2019-03-29T22:20:54.265Z,13.43
2019-03-29T22:23:35.082Z,9.73
2019-03-29T22:28:58.687Z,12.17
2019-03-29T22:31:39.402Z,10.53
2019-03-29T22:34:20.361Z,10.10
2019-03-29T22:37:00.988Z,9.03
2019-03-29T22:39:41.827Z,9.27
2019-03-29T22:42:22.712Z,13.37
2019-03-29T22:45:03.701Z,9.90
2019-03-29T22:47:44.423Z,8.43
2019-03-29T22:50:25.212Z,11.33
2019-03-29T22:53:05.965Z,12.23
2019-03-29T22:55:46.700Z,13.73
2019-03-29T22:58:28.648Z,12.40
2019-03-29T23:01:09.697Z,10.43
2019-03-29T23:03:50.648Z,13.07
2019-03-29T23:09:14.640Z,10.13
2019-03-29T23:11:55.603Z,11.90
2019-03-29T23:14:36.245Z,12.87
2019-03-29T23:17:16.886Z,11.33
2019-03-29T23:19:57.984Z,8.73
2019-03-29T23:22:38.633Z,9.37
2019-03-29T23:28:02.357Z,9.37
2019-03-29T23:30:43.311Z,8.27
2019-03-29T23:33:23.933Z,9.33
2019-03-29T23:36:04.782Z,10.80
2019-03-29T23:38:45.519Z,13.80
2019-03-29T23:41:26.381Z,12.00
2019-03-29T23:44:07.204Z,10.20
2019-03-29T23:46:47.629Z,10.40
2019-03-29T23:49:28.528Z,7.93
2019-03-29T23:52:09.530Z,15.90
2019-03-29T23:54:50.404Z,13.37
2019-03-29T23:57:31.448Z,11.80
